sensor_id;sensor_type;location;lat;lon;timestamp;P1;durP1;ratioP1;P2;durP2;ratioP2
1262;SDS011;62267;50.112;8.704;2023-09-30T00:02:03;5.67;;;4.93;;
1262;SDS011;62267;50.112;8.704;2023-09-30T00:04:31;11.33;;;5.70;;
1262;SDS011;62267;50.112;8.704;2023-09-30T00:07:00;7.40;;;4.80;;
1262;SDS011;62267;50.112;8.704;2023-09-30T00:09:27;8.60;;;5.40;;
1262;SDS011;62267;50.112;8.704;2023-09-30T00:11:55;6.87;;;4.73;;
1262;SDS011;62267;50.112;8.704;2023-09-30T00:14:22;8.70;;;5.30;;
1262;SDS011;62267;50.112;8.704;2023-09-30T00:16:50;7.60;;;4.90;;
1262;SDS011;62267;50.112;8.704;2023-09-30T00:19:18;8.93;;;5.73;;
1262;SDS011;62267;50.112;8.704;2023-09-30T00:21:45;8.40;;;6.27;;
1262;SDS011;62267;50.112;8.704;2023-09-30T00:24:12;11.60;;;6.07;;
1262;SDS011;62267;50.112;8.704;2023-09-30T00:26:40;8.33;;;5.30;;
1262;SDS011;62267;50.112;8.704;2023-09-30T00:29:08;8.90;;;4.67;;
1262;SDS011;62267;50.112;8.704;2023-09-30T00:31:37;9.80;;;5.53;;
1262;SDS011;62267;50.112;8.704;2023-09-30T00:34:05;9.13;;;6.23;;
1262;SDS011;62267;50.112;8.704;2023-09-30T00:36:32;7.17;;;5.80;;
1262;SDS011;62267;50.112;8.704;2023-09-30T00:38:59;6.33;;;5.37;;
1262;SDS011;62267;50.112;8.704;2023-09-30T00:41:27;6.07;;;5.47;;
1262;SDS011;62267;50.112;8.704;2023-09-30T00:43:54;7.77;;;4.93;;
1262;SDS011;62267;50.112;8.704;2023-09-30T00:46:29;8.97;;;6.80;;
1262;SDS011;62267;50.112;8.704;2023-09-30T00:48:58;10.70;;;6.13;;
1262;SDS011;62267;50.112;8.704;2023-09-30T00:51:27;12.07;;;6.30;;
1262;SDS011;62267;50.112;8.704;2023-09-30T00:53:57;11.23;;;5.93;;
1262;SDS011;62267;50.112;8.704;2023-09-30T00:56:27;6.70;;;5.80;;
1262;SDS011;62267;50.112;8.704;2023-09-30T00:58:54;9.43;;;6.83;;
1262;SDS011;62267;50.112;8.704;2023-09-30T01:01:23;10.23;;;6.50;;
1262;SDS011;62267;50.112;8.704;2023-09-30T01:03:50;6.63;;;5.70;;
1262;SDS011;62267;50.112;8.704;2023-09-30T01:06:21;9.70;;;6.13;;
1262;SDS011;62267;50.112;8.704;2023-09-30T01:08:48;8.57;;;6.97;;
1262;SDS011;62267;50.112;8.704;2023-09-30T01:11:16;9.60;;;6.27;;
1262;SDS011;62267;50.112;8.704;2023-09-30T01:13:44;8.67;;;6.60;;
1262;SDS011;62267;50.112;8.704;2023-09-30T01:16:13;11.17;;;7.00;;
1262;SDS011;62267;50.112;8.704;2023-09-30T01:18:41;6.67;;;5.90;;
1262;SDS011;62267;50.112;8.704;2023-09-30T01:21:10;7.00;;;6.07;;
1262;SDS011;62267;50.112;8.704;2023-09-30T01:23:40;8.47;;;6.17;;
1262;SDS011;62267;50.112;8.704;2023-09-30T01:26:11;7.50;;;5.70;;
1262;SDS011;62267;50.112;8.704;2023-09-30T01:28:39;7.50;;;6.73;;
1262;SDS011;62267;50.112;8.704;2023-09-30T01:31:07;7.50;;;5.43;;
1262;SDS011;62267;50.112;8.704;2023-09-30T01:33:34;9.00;;;6.47;;
1262;SDS011;62267;50.112;8.704;2023-09-30T01:36:02;7.97;;;6.20;;
1262;SDS011;62267;50.112;8.704;2023-09-30T01:38:30;7.30;;;6.60;;
1262;SDS011;62267;50.112;8.704;2023-09-30T01:40:58;9.73;;;6.50;;
1262;SDS011;62267;50.112;8.704;2023-09-30T01:43:27;7.47;;;5.80;;
1262;SDS011;62267;50.112;8.704;2023-09-30T01:45:55;7.00;;;5.40;;
1262;SDS011;62267;50.112;8.704;2023-09-30T01:48:24;7.03;;;5.90;;
1262;SDS011;62267;50.112;8.704;2023-09-30T01:50:51;9.03;;;6.33;;
1262;SDS011;62267;50.112;8.704;2023-09-30T01:53:18;9.70;;;6.03;;
1262;SDS011;62267;50.112;8.704;2023-09-30T01:55:46;7.90;;;6.23;;
1262;SDS011;62267;50.112;8.704;2023-09-30T01:58:14;9.03;;;6.43;;
1262;SDS011;62267;50.112;8.704;2023-09-30T02:00:42;6.73;;;5.33;;
1262;SDS011;62267;50.112;8.704;2023-09-30T02:03:09;7.53;;;5.60;;
1262;SDS011;62267;50.112;8.704;2023-09-30T02:05:40;6.53;;;4.93;;
1262;SDS011;62267;50.112;8.704;2023-09-30T02:08:08;7.00;;;5.60;;
1262;SDS011;62267;50.112;8.704;2023-09-30T02:10:35;7.23;;;5.07;;
1262;SDS011;62267;50.112;8.704;2023-09-30T02:13:03;7.70;;;5.97;;
1262;SDS011;62267;50.112;8.704;2023-09-30T02:15:33;8.23;;;5.90;;
1262;SDS011;62267;50.112;8.704;2023-09-30T02:18:01;9.90;;;4.97;;
1262;SDS011;62267;50.112;8.704;2023-09-30T02:20:31;10.47;;;5.53;;
1262;SDS011;62267;50.112;8.704;2023-09-30T02:22:59;6.60;;;4.93;;
1262;SDS011;62267;50.112;8.704;2023-09-30T02:25:29;7.50;;;5.13;;
1262;SDS011;62267;50.112;8.704;2023-09-30T02:27:57;8.47;;;4.90;;
1262;SDS011;62267;50.112;8.704;2023-09-30T02:30:24;10.30;;;7.37;;
1262;SDS011;62267;50.112;8.704;2023-09-30T02:32:52;10.43;;;8.10;;
1262;SDS011;62267;50.112;8.704;2023-09-30T02:35:22;13.97;;;9.57;;
1262;SDS011;62267;50.112;8.704;2023-09-30T02:37:50;10.90;;;8.77;;
1262;SDS011;62267;50.112;8.704;2023-09-30T02:40:18;11.73;;;8.90;;
1262;SDS011;62267;50.112;8.704;2023-09-30T02:42:46;16.87;;;9.57;;
1262;SDS011;62267;50.112;8.704;2023-09-30T02:45:15;12.90;;;9.53;;
1262;SDS011;62267;50.112;8.704;2023-09-30T02:47:44;15.47;;;9.77;;
1262;SDS011;62267;50.112;8.704;2023-09-30T02:50:11;11.13;;;9.10;;
1262;SDS011;62267;50.112;8.704;2023-09-30T02:52:39;9.87;;;8.07;;
1262;SDS011;62267;50.112;8.704;2023-09-30T02:55:10;15.30;;;8.17;;
1262;SDS011;62267;50.112;8.704;2023-09-30T02:57:37;8.37;;;7.40;;
1262;SDS011;62267;50.112;8.704;2023-09-30T03:00:05;11.07;;;8.47;;
1262;SDS011;62267;50.112;8.704;2023-09-30T03:03:01;11.53;;;8.03;;
1262;SDS011;62267;50.112;8.704;2023-09-30T03:05:29;16.60;;;7.67;;
1262;SDS011;62267;50.112;8.704;2023-09-30T03:08:00;14.20;;;8.67;;
1262;SDS011;62267;50.112;8.704;2023-09-30T03:10:28;10.23;;;7.07;;
1262;SDS011;62267;50.112;8.704;2023-09-30T03:12:55;9.03;;;7.20;;
1262;SDS011;62267;50.112;8.704;2023-09-30T03:15:28;7.27;;;6.10;;
1262;SDS011;62267;50.112;8.704;2023-09-30T03:17:59;10.07;;;7.50;;
1262;SDS011;62267;50.112;8.704;2023-09-30T03:23:22;10.73;;;7.27;;
1262;SDS011;62267;50.112;8.704;2023-09-30T03:25:58;12.30;;;7.87;;
1262;SDS011;62267;50.112;8.704;2023-09-30T03:28:26;10.43;;;7.40;;
1262;SDS011;62267;50.112;8.704;2023-09-30T03:30:54;12.57;;;7.43;;
1262;SDS011;62267;50.112;8.704;2023-09-30T03:33:23;11.83;;;8.10;;
1262;SDS011;62267;50.112;8.704;2023-09-30T03:35:52;9.27;;;6.80;;
1262;SDS011;62267;50.112;8.704;2023-09-30T03:38:19;8.77;;;7.87;;
1262;SDS011;62267;50.112;8.704;2023-09-30T03:40:49;13.40;;;7.80;;
1262;SDS011;62267;50.112;8.704;2023-09-30T03:43:16;9.37;;;7.90;;
1262;SDS011;62267;50.112;8.704;2023-09-30T03:45:44;16.87;;;10.67;;
1262;SDS011;62267;50.112;8.704;2023-09-30T03:48:12;17.47;;;10.10;;
1262;SDS011;62267;50.112;8.704;2023-09-30T03:50:39;11.73;;;8.47;;
1262;SDS011;62267;50.112;8.704;2023-09-30T03:53:07;8.67;;;6.90;;
1262;SDS011;62267;50.112;8.704;2023-09-30T03:55:36;13.30;;;10.23;;
1262;SDS011;62267;50.112;8.704;2023-09-30T03:58:04;12.17;;;7.70;;
1262;SDS011;62267;50.112;8.704;2023-09-30T04:00:31;10.17;;;7.70;;
1262;SDS011;62267;50.112;8.704;2023-09-30T04:02:59;10.30;;;7.50;;
1262;SDS011;62267;50.112;8.704;2023-09-30T04:05:27;16.33;;;8.37;;
1262;SDS011;62267;50.112;8.704;2023-09-30T04:08:03;9.33;;;7.40;;
1262;SDS011;62267;50.112;8.704;2023-09-30T04:10:31;9.57;;;8.57;;
1262;SDS011;62267;50.112;8.704;2023-09-30T04:12:59;11.53;;;8.77;;
1262;SDS011;62267;50.112;8.704;2023-09-30T04:15:26;14.10;;;7.87;;
1262;SDS011;62267;50.112;8.704;2023-09-30T04:17:53;9.33;;;7.90;;
1262;SDS011;62267;50.112;8.704;2023-09-30T04:20:21;13.57;;;8.10;;
1262;SDS011;62267;50.112;8.704;2023-09-30T04:22:50;13.53;;;8.90;;
1262;SDS011;62267;50.112;8.704;2023-09-30T04:25:21;9.50;;;7.37;;
1262;SDS011;62267;50.112;8.704;2023-09-30T04:27:51;12.73;;;9.40;;
1262;SDS011;62267;50.112;8.704;2023-09-30T04:30:19;18.47;;;9.40;;
1262;SDS011;62267;50.112;8.704;2023-09-30T04:32:49;10.00;;;7.63;;
1262;SDS011;62267;50.112;8.704;2023-09-30T04:35:16;9.23;;;7.83;;
1262;SDS011;62267;50.112;8.704;2023-09-30T04:37:44;10.17;;;7.90;;
1262;SDS011;62267;50.112;8.704;2023-09-30T04:40:11;9.50;;;8.07;;
1262;SDS011;62267;50.112;8.704;2023-09-30T04:42:42;12.67;;;9.37;;
1262;SDS011;62267;50.112;8.704;2023-09-30T04:45:13;11.93;;;8.47;;
1262;SDS011;62267;50.112;8.704;2023-09-30T04:47:47;12.50;;;8.33;;
1262;SDS011;62267;50.112;8.704;2023-09-30T04:50:17;9.70;;;8.23;;
1262;SDS011;62267;50.112;8.704;2023-09-30T04:52:45;14.20;;;9.83;;
1262;SDS011;62267;50.112;8.704;2023-09-30T04:55:13;11.63;;;9.00;;
1262;SDS011;62267;50.112;8.704;2023-09-30T04:57:43;12.60;;;8.23;;
1262;SDS011;62267;50.112;8.704;2023-09-30T05:00:14;16.07;;;9.87;;
1262;SDS011;62267;50.112;8.704;2023-09-30T05:02:44;9.67;;;8.20;;
1262;SDS011;62267;50.112;8.704;2023-09-30T05:05:11;9.93;;;8.53;;
1262;SDS011;62267;50.112;8.704;2023-09-30T05:07:39;11.40;;;8.67;;
1262;SDS011;62267;50.112;8.704;2023-09-30T05:10:10;12.30;;;8.23;;
1262;SDS011;62267;50.112;8.704;2023-09-30T05:12:40;12.63;;;8.53;;
1262;SDS011;62267;50.112;8.704;2023-09-30T05:15:12;14.40;;;9.00;;
1262;SDS011;62267;50.112;8.704;2023-09-30T05:17:42;10.23;;;8.53;;
1262;SDS011;62267;50.112;8.704;2023-09-30T05:20:13;15.43;;;9.37;;
1262;SDS011;62267;50.112;8.704;2023-09-30T05:22:43;9.73;;;8.80;;
1262;SDS011;62267;50.112;8.704;2023-09-30T05:25:15;13.80;;;9.23;;
1262;SDS011;62267;50.112;8.704;2023-09-30T05:27:44;11.10;;;9.10;;
1262;SDS011;62267;50.112;8.704;2023-09-30T05:30:14;12.47;;;9.00;;
1262;SDS011;62267;50.112;8.704;2023-09-30T05:32:43;11.80;;;8.20;;
1262;SDS011;62267;50.112;8.704;2023-09-30T05:35:13;19.27;;;9.03;;
1262;SDS011;62267;50.112;8.704;2023-09-30T05:37:43;10.40;;;8.40;;
1262;SDS011;62267;50.112;8.704;2023-09-30T05:40:12;10.30;;;8.20;;
1262;SDS011;62267;50.112;8.704;2023-09-30T05:42:46;9.57;;;8.47;;
1262;SDS011;62267;50.112;8.704;2023-09-30T05:45:14;11.33;;;8.73;;
1262;SDS011;62267;50.112;8.704;2023-09-30T05:47:42;11.80;;;8.40;;
1262;SDS011;62267;50.112;8.704;2023-09-30T05:50:11;18.00;;;9.00;;
1262;SDS011;62267;50.112;8.704;2023-09-30T05:52:42;20.40;;;9.80;;
1262;SDS011;62267;50.112;8.704;2023-09-30T05:55:12;13.43;;;9.70;;
1262;SDS011;62267;50.112;8.704;2023-09-30T05:57:49;13.73;;;9.97;;
1262;SDS011;62267;50.112;8.704;2023-09-30T06:00:16;14.90;;;9.40;;
1262;SDS011;62267;50.112;8.704;2023-09-30T06:02:48;14.20;;;10.20;;
1262;SDS011;62267;50.112;8.704;2023-09-30T06:05:15;10.40;;;9.00;;
1262;SDS011;62267;50.112;8.704;2023-09-30T06:07:45;16.17;;;9.80;;
1262;SDS011;62267;50.112;8.704;2023-09-30T06:10:13;14.97;;;10.37;;
1262;SDS011;62267;50.112;8.704;2023-09-30T06:12:49;10.90;;;9.00;;
1262;SDS011;62267;50.112;8.704;2023-09-30T06:15:16;15.57;;;10.33;;
1262;SDS011;62267;50.112;8.704;2023-09-30T06:17:52;16.93;;;10.20;;
1262;SDS011;62267;50.112;8.704;2023-09-30T06:20:19;13.70;;;9.43;;
1262;SDS011;62267;50.112;8.704;2023-09-30T06:22:49;19.23;;;11.07;;
1262;SDS011;62267;50.112;8.704;2023-09-30T06:25:17;16.60;;;10.70;;
1262;SDS011;62267;50.112;8.704;2023-09-30T06:27:45;18.07;;;11.33;;
1262;SDS011;62267;50.112;8.704;2023-09-30T06:30:13;13.47;;;11.07;;
1262;SDS011;62267;50.112;8.704;2023-09-30T06:32:42;21.00;;;12.13;;
1262;SDS011;62267;50.112;8.704;2023-09-30T06:35:10;17.07;;;12.30;;
1262;SDS011;62267;50.112;8.704;2023-09-30T06:37:37;17.07;;;10.63;;
1262;SDS011;62267;50.112;8.704;2023-09-30T06:40:06;18.10;;;12.07;;
1262;SDS011;62267;50.112;8.704;2023-09-30T06:42:36;20.63;;;13.10;;
1262;SDS011;62267;50.112;8.704;2023-09-30T06:45:03;14.77;;;10.67;;
1262;SDS011;62267;50.112;8.704;2023-09-30T06:47:32;20.40;;;11.70;;
1262;SDS011;62267;50.112;8.704;2023-09-30T06:50:04;13.10;;;10.10;;
1262;SDS011;62267;50.112;8.704;2023-09-30T06:52:34;14.40;;;10.37;;
1262;SDS011;62267;50.112;8.704;2023-09-30T06:55:02;11.90;;;10.80;;
1262;SDS011;62267;50.112;8.704;2023-09-30T06:57:34;17.60;;;13.17;;
1262;SDS011;62267;50.112;8.704;2023-09-30T07:00:08;13.33;;;10.03;;
1262;SDS011;62267;50.112;8.704;2023-09-30T07:02:36;15.83;;;11.60;;
1262;SDS011;62267;50.112;8.704;2023-09-30T07:05:10;14.80;;;10.03;;
1262;SDS011;62267;50.112;8.704;2023-09-30T07:07:38;13.80;;;10.40;;
1262;SDS011;62267;50.112;8.704;2023-09-30T07:10:06;11.97;;;9.53;;
1262;SDS011;62267;50.112;8.704;2023-09-30T07:12:34;11.50;;;9.80;;
1262;SDS011;62267;50.112;8.704;2023-09-30T07:15:03;17.20;;;10.83;;
1262;SDS011;62267;50.112;8.704;2023-09-30T07:17:34;11.27;;;8.53;;
1262;SDS011;62267;50.112;8.704;2023-09-30T07:20:04;11.40;;;8.70;;
1262;SDS011;62267;50.112;8.704;2023-09-30T07:22:32;14.60;;;10.37;;
1262;SDS011;62267;50.112;8.704;2023-09-30T07:25:15;16.50;;;9.90;;
1262;SDS011;62267;50.112;8.704;2023-09-30T07:27:43;18.03;;;12.17;;
1262;SDS011;62267;50.112;8.704;2023-09-30T07:30:12;13.77;;;9.87;;
1262;SDS011;62267;50.112;8.704;2023-09-30T07:32:42;14.53;;;9.50;;
1262;SDS011;62267;50.112;8.704;2023-09-30T07:35:09;12.20;;;9.83;;
1262;SDS011;62267;50.112;8.704;2023-09-30T07:37:37;14.70;;;10.20;;
1262;SDS011;62267;50.112;8.704;2023-09-30T07:40:04;17.13;;;11.40;;
1262;SDS011;62267;50.112;8.704;2023-09-30T07:42:32;10.87;;;9.77;;
1262;SDS011;62267;50.112;8.704;2023-09-30T07:45:01;11.10;;;9.00;;
1262;SDS011;62267;50.112;8.704;2023-09-30T07:47:31;13.70;;;9.57;;
1262;SDS011;62267;50.112;8.704;2023-09-30T07:50:00;10.67;;;9.57;;
1262;SDS011;62267;50.112;8.704;2023-09-30T07:52:36;10.30;;;8.90;;
1262;SDS011;62267;50.112;8.704;2023-09-30T07:55:04;10.93;;;8.60;;
1262;SDS011;62267;50.112;8.704;2023-09-30T07:57:32;12.27;;;8.37;;
1262;SDS011;62267;50.112;8.704;2023-09-30T07:59:59;13.43;;;8.73;;
1262;SDS011;62267;50.112;8.704;2023-09-30T08:02:35;6.80;;;6.10;;
1262;SDS011;62267;50.112;8.704;2023-09-30T08:05:03;10.63;;;7.10;;
1262;SDS011;62267;50.112;8.704;2023-09-30T08:07:32;12.73;;;6.77;;
1262;SDS011;62267;50.112;8.704;2023-09-30T08:10:00;12.13;;;7.50;;
1262;SDS011;62267;50.112;8.704;2023-09-30T08:12:30;9.47;;;6.80;;
1262;SDS011;62267;50.112;8.704;2023-09-30T08:14:58;10.83;;;6.40;;
1262;SDS011;62267;50.112;8.704;2023-09-30T08:17:25;7.87;;;5.77;;
1262;SDS011;62267;50.112;8.704;2023-09-30T08:19:53;9.57;;;6.83;;
1262;SDS011;62267;50.112;8.704;2023-09-30T08:22:20;10.83;;;6.37;;
1262;SDS011;62267;50.112;8.704;2023-09-30T08:24:52;10.30;;;6.93;;
1262;SDS011;62267;50.112;8.704;2023-09-30T08:27:19;11.03;;;8.23;;
1262;SDS011;62267;50.112;8.704;2023-09-30T08:29:46;10.70;;;7.50;;
1262;SDS011;62267;50.112;8.704;2023-09-30T08:32:15;13.07;;;8.43;;
1262;SDS011;62267;50.112;8.704;2023-09-30T08:34:43;15.80;;;8.40;;
1262;SDS011;62267;50.112;8.704;2023-09-30T08:37:11;10.03;;;8.00;;
1262;SDS011;62267;50.112;8.704;2023-09-30T08:39:38;13.40;;;9.00;;
1262;SDS011;62267;50.112;8.704;2023-09-30T08:42:10;10.13;;;8.37;;
1262;SDS011;62267;50.112;8.704;2023-09-30T08:44:38;12.70;;;8.50;;
1262;SDS011;62267;50.112;8.704;2023-09-30T08:47:06;16.50;;;9.30;;
1262;SDS011;62267;50.112;8.704;2023-09-30T08:49:37;11.60;;;8.33;;
1262;SDS011;62267;50.112;8.704;2023-09-30T08:52:09;9.93;;;8.50;;
1262;SDS011;62267;50.112;8.704;2023-09-30T08:54:36;15.17;;;10.10;;
1262;SDS011;62267;50.112;8.704;2023-09-30T08:57:05;12.53;;;8.17;;
1262;SDS011;62267;50.112;8.704;2023-09-30T08:59:34;12.93;;;9.13;;
1262;SDS011;62267;50.112;8.704;2023-09-30T09:02:10;12.50;;;8.50;;
1262;SDS011;62267;50.112;8.704;2023-09-30T09:04:37;12.80;;;9.67;;
1262;SDS011;62267;50.112;8.704;2023-09-30T09:07:05;11.70;;;8.90;;
1262;SDS011;62267;50.112;8.704;2023-09-30T09:09:32;10.33;;;8.40;;
1262;SDS011;62267;50.112;8.704;2023-09-30T09:12:00;11.30;;;9.00;;
1262;SDS011;62267;50.112;8.704;2023-09-30T09:14:38;11.30;;;8.53;;
1262;SDS011;62267;50.112;8.704;2023-09-30T09:17:06;8.57;;;7.67;;
1262;SDS011;62267;50.112;8.704;2023-09-30T09:19:34;10.40;;;8.70;;
1262;SDS011;62267;50.112;8.704;2023-09-30T09:22:02;13.23;;;9.60;;
1262;SDS011;62267;50.112;8.704;2023-09-30T09:24:35;9.90;;;7.90;;
1262;SDS011;62267;50.112;8.704;2023-09-30T09:27:10;11.40;;;7.60;;
1262;SDS011;62267;50.112;8.704;2023-09-30T09:29:39;10.80;;;7.60;;
1262;SDS011;62267;50.112;8.704;2023-09-30T09:32:12;9.73;;;7.50;;
1262;SDS011;62267;50.112;8.704;2023-09-30T09:34:41;9.40;;;8.00;;
1262;SDS011;62267;50.112;8.704;2023-09-30T09:37:19;9.73;;;8.80;;
1262;SDS011;62267;50.112;8.704;2023-09-30T09:39:53;13.90;;;8.20;;
1262;SDS011;62267;50.112;8.704;2023-09-30T09:45:04;10.60;;;7.47;;
1262;SDS011;62267;50.112;8.704;2023-09-30T09:47:32;12.00;;;7.87;;
1262;SDS011;62267;50.112;8.704;2023-09-30T09:50:03;12.63;;;8.73;;
1262;SDS011;62267;50.112;8.704;2023-09-30T09:52:32;12.20;;;8.67;;
1262;SDS011;62267;50.112;8.704;2023-09-30T09:55:01;12.10;;;7.47;;
1262;SDS011;62267;50.112;8.704;2023-09-30T09:57:30;12.20;;;8.70;;
1262;SDS011;62267;50.112;8.704;2023-09-30T09:59:58;9.87;;;7.93;;
1262;SDS011;62267;50.112;8.704;2023-09-30T10:02:26;12.03;;;8.50;;
1262;SDS011;62267;50.112;8.704;2023-09-30T10:04:57;9.90;;;8.57;;
1262;SDS011;62267;50.112;8.704;2023-09-30T10:07:26;12.00;;;7.27;;
1262;SDS011;62267;50.112;8.704;2023-09-30T10:09:55;9.60;;;7.73;;
1262;SDS011;62267;50.112;8.704;2023-09-30T10:12:24;10.50;;;8.07;;
1262;SDS011;62267;50.112;8.704;2023-09-30T10:14:52;10.20;;;9.03;;
1262;SDS011;62267;50.112;8.704;2023-09-30T10:17:20;11.40;;;8.20;;
1262;SDS011;62267;50.112;8.704;2023-09-30T10:20:03;21.30;;;12.10;;
1262;SDS011;62267;50.112;8.704;2023-09-30T10:22:34;13.87;;;10.80;;
1262;SDS011;62267;50.112;8.704;2023-09-30T10:25:02;17.00;;;13.70;;
1262;SDS011;62267;50.112;8.704;2023-09-30T10:27:49;17.47;;;11.10;;
1262;SDS011;62267;50.112;8.704;2023-09-30T10:30:16;11.47;;;10.13;;
1262;SDS011;62267;50.112;8.704;2023-09-30T10:35:18;14.90;;;11.53;;
1262;SDS011;62267;50.112;8.704;2023-09-30T10:37:46;12.43;;;9.40;;
1262;SDS011;62267;50.112;8.704;2023-09-30T10:40:29;6.77;;;6.03;;
1262;SDS011;62267;50.112;8.704;2023-09-30T10:42:57;7.93;;;7.10;;
1262;SDS011;62267;50.112;8.704;2023-09-30T10:45:42;9.03;;;8.13;;
1262;SDS011;62267;50.112;8.704;2023-09-30T10:50:55;8.43;;;7.63;;
1262;SDS011;62267;50.112;8.704;2023-09-30T10:53:26;7.50;;;5.93;;
1262;SDS011;62267;50.112;8.704;2023-09-30T10:55:58;13.20;;;8.70;;
1262;SDS011;62267;50.112;8.704;2023-09-30T10:58:39;10.47;;;8.00;;
1262;SDS011;62267;50.112;8.704;2023-09-30T11:01:07;12.23;;;5.47;;
1262;SDS011;62267;50.112;8.704;2023-09-30T11:03:35;7.37;;;6.07;;
1262;SDS011;62267;50.112;8.704;2023-09-30T11:06:04;14.57;;;10.13;;
1262;SDS011;62267;50.112;8.704;2023-09-30T11:08:34;9.73;;;5.57;;
1262;SDS011;62267;50.112;8.704;2023-09-30T11:11:03;8.50;;;6.47;;
1262;SDS011;62267;50.112;8.704;2023-09-30T11:13:32;8.27;;;7.37;;
1262;SDS011;62267;50.112;8.704;2023-09-30T11:16:01;8.17;;;7.13;;
1262;SDS011;62267;50.112;8.704;2023-09-30T11:18:29;7.60;;;6.10;;
1262;SDS011;62267;50.112;8.704;2023-09-30T11:21:05;7.63;;;6.60;;
1262;SDS011;62267;50.112;8.704;2023-09-30T11:23:32;7.63;;;6.00;;
1262;SDS011;62267;50.112;8.704;2023-09-30T11:26:02;9.03;;;6.03;;
1262;SDS011;62267;50.112;8.704;2023-09-30T11:28:41;8.40;;;7.67;;
1262;SDS011;62267;50.112;8.704;2023-09-30T11:31:09;11.07;;;6.60;;
1262;SDS011;62267;50.112;8.704;2023-09-30T11:33:47;7.53;;;5.57;;
1262;SDS011;62267;50.112;8.704;2023-09-30T11:36:16;7.57;;;5.50;;
1262;SDS011;62267;50.112;8.704;2023-09-30T11:38:44;7.80;;;7.00;;
1262;SDS011;62267;50.112;8.704;2023-09-30T11:41:16;7.43;;;5.63;;
1262;SDS011;62267;50.112;8.704;2023-09-30T11:43:59;10.10;;;5.73;;
1262;SDS011;62267;50.112;8.704;2023-09-30T11:46:27;8.70;;;6.00;;
1262;SDS011;62267;50.112;8.704;2023-09-30T11:48:56;6.10;;;5.00;;
1262;SDS011;62267;50.112;8.704;2023-09-30T11:51:27;7.87;;;5.50;;
1262;SDS011;62267;50.112;8.704;2023-09-30T11:53:55;6.20;;;5.20;;
1262;SDS011;62267;50.112;8.704;2023-09-30T11:56:24;6.57;;;5.70;;
1262;SDS011;62267;50.112;8.704;2023-09-30T11:58:56;7.43;;;5.80;;
1262;SDS011;62267;50.112;8.704;2023-09-30T12:01:26;6.23;;;5.63;;
1262;SDS011;62267;50.112;8.704;2023-09-30T12:03:57;6.80;;;5.70;;
1262;SDS011;62267;50.112;8.704;2023-09-30T12:06:25;5.77;;;5.17;;
1262;SDS011;62267;50.112;8.704;2023-09-30T12:08:53;5.90;;;5.10;;
1262;SDS011;62267;50.112;8.704;2023-09-30T12:11:20;5.57;;;5.10;;
1262;SDS011;62267;50.112;8.704;2023-09-30T12:13:50;7.43;;;5.50;;
1262;SDS011;62267;50.112;8.704;2023-09-30T12:16:17;7.07;;;6.17;;
1262;SDS011;62267;50.112;8.704;2023-09-30T12:18:45;7.17;;;6.47;;
1262;SDS011;62267;50.112;8.704;2023-09-30T12:21:12;7.33;;;5.07;;
1262;SDS011;62267;50.112;8.704;2023-09-30T12:23:40;6.40;;;5.20;;
1262;SDS011;62267;50.112;8.704;2023-09-30T12:26:08;8.57;;;4.80;;
1262;SDS011;62267;50.112;8.704;2023-09-30T12:28:40;4.80;;;4.40;;
1262;SDS011;62267;50.112;8.704;2023-09-30T12:31:07;4.70;;;4.30;;
1262;SDS011;62267;50.112;8.704;2023-09-30T12:33:37;7.30;;;6.23;;
1262;SDS011;62267;50.112;8.704;2023-09-30T12:36:06;8.20;;;5.80;;
1262;SDS011;62267;50.112;8.704;2023-09-30T12:38:36;6.77;;;5.60;;
1262;SDS011;62267;50.112;8.704;2023-09-30T12:41:03;5.57;;;4.50;;
1262;SDS011;62267;50.112;8.704;2023-09-30T12:43:30;8.23;;;5.30;;
1262;SDS011;62267;50.112;8.704;2023-09-30T12:45:57;9.93;;;4.40;;
1262;SDS011;62267;50.112;8.704;2023-09-30T12:48:25;5.30;;;4.20;;
1262;SDS011;62267;50.112;8.704;2023-09-30T12:50:53;8.17;;;4.40;;
1262;SDS011;62267;50.112;8.704;2023-09-30T12:53:20;5.73;;;3.80;;
1262;SDS011;62267;50.112;8.704;2023-09-30T12:55:48;5.27;;;3.90;;
1262;SDS011;62267;50.112;8.704;2023-09-30T12:58:15;5.23;;;4.40;;
1262;SDS011;62267;50.112;8.704;2023-09-30T13:00:42;5.57;;;4.67;;
1262;SDS011;62267;50.112;8.704;2023-09-30T13:03:10;5.87;;;5.37;;
1262;SDS011;62267;50.112;8.704;2023-09-30T13:05:40;6.67;;;5.13;;
1262;SDS011;62267;50.112;8.704;2023-09-30T13:08:09;7.77;;;5.20;;
1262;SDS011;62267;50.112;8.704;2023-09-30T13:10:37;4.57;;;3.47;;
1262;SDS011;62267;50.112;8.704;2023-09-30T13:13:05;5.03;;;4.30;;
1262;SDS011;62267;50.112;8.704;2023-09-30T13:15:34;6.30;;;4.43;;
1262;SDS011;62267;50.112;8.704;2023-09-30T13:18:04;5.50;;;4.93;;
1262;SDS011;62267;50.112;8.704;2023-09-30T13:20:33;6.93;;;4.70;;
1262;SDS011;62267;50.112;8.704;2023-09-30T13:23:02;5.20;;;3.30;;
1262;SDS011;62267;50.112;8.704;2023-09-30T13:25:30;4.57;;;4.00;;
1262;SDS011;62267;50.112;8.704;2023-09-30T13:27:58;5.20;;;3.60;;
1262;SDS011;62267;50.112;8.704;2023-09-30T13:30:25;5.13;;;4.03;;
1262;SDS011;62267;50.112;8.704;2023-09-30T13:32:53;3.30;;;3.10;;
1262;SDS011;62267;50.112;8.704;2023-09-30T13:35:22;4.73;;;4.20;;
1262;SDS011;62267;50.112;8.704;2023-09-30T13:37:49;5.30;;;4.03;;
1262;SDS011;62267;50.112;8.704;2023-09-30T13:40:17;4.40;;;3.73;;
1262;SDS011;62267;50.112;8.704;2023-09-30T13:42:45;5.20;;;3.83;;
1262;SDS011;62267;50.112;8.704;2023-09-30T13:45:13;4.50;;;4.13;;
1262;SDS011;62267;50.112;8.704;2023-09-30T13:47:44;5.73;;;4.83;;
1262;SDS011;62267;50.112;8.704;2023-09-30T13:50:15;6.40;;;4.20;;
1262;SDS011;62267;50.112;8.704;2023-09-30T13:52:43;5.17;;;3.70;;
1262;SDS011;62267;50.112;8.704;2023-09-30T13:55:10;8.00;;;4.10;;
1262;SDS011;62267;50.112;8.704;2023-09-30T13:57:38;5.13;;;3.53;;
1262;SDS011;62267;50.112;8.704;2023-09-30T14:00:09;4.30;;;3.50;;
1262;SDS011;62267;50.112;8.704;2023-09-30T14:02:37;4.03;;;3.60;;
1262;SDS011;62267;50.112;8.704;2023-09-30T14:05:05;3.90;;;3.50;;
1262;SDS011;62267;50.112;8.704;2023-09-30T14:07:35;3.57;;;3.27;;
1262;SDS011;62267;50.112;8.704;2023-09-30T14:10:06;6.40;;;3.97;;
1262;SDS011;62267;50.112;8.704;2023-09-30T14:12:37;4.10;;;3.33;;
1262;SDS011;62267;50.112;8.704;2023-09-30T14:15:07;3.80;;;3.33;;
1262;SDS011;62267;50.112;8.704;2023-09-30T14:17:37;3.60;;;3.00;;
1262;SDS011;62267;50.112;8.704;2023-09-30T14:20:04;5.70;;;3.60;;
1262;SDS011;62267;50.112;8.704;2023-09-30T14:22:33;5.50;;;4.10;;
1262;SDS011;62267;50.112;8.704;2023-09-30T14:25:00;5.10;;;3.60;;
1262;SDS011;62267;50.112;8.704;2023-09-30T14:27:28;3.83;;;3.53;;
1262;SDS011;62267;50.112;8.704;2023-09-30T14:29:56;4.50;;;4.10;;
1262;SDS011;62267;50.112;8.704;2023-09-30T14:32:24;3.87;;;3.57;;
1262;SDS011;62267;50.112;8.704;2023-09-30T14:34:52;4.10;;;3.80;;
1262;SDS011;62267;50.112;8.704;2023-09-30T14:37:19;6.03;;;5.40;;
1262;SDS011;62267;50.112;8.704;2023-09-30T14:39:47;10.70;;;5.00;;
1262;SDS011;62267;50.112;8.704;2023-09-30T14:42:15;3.93;;;3.40;;
1262;SDS011;62267;50.112;8.704;2023-09-30T14:44:43;6.10;;;4.27;;
1262;SDS011;62267;50.112;8.704;2023-09-30T14:47:10;3.30;;;3.00;;
1262;SDS011;62267;50.112;8.704;2023-09-30T14:49:39;6.57;;;3.50;;
1262;SDS011;62267;50.112;8.704;2023-09-30T14:52:06;4.10;;;3.70;;
1262;SDS011;62267;50.112;8.704;2023-09-30T14:54:36;4.90;;;4.37;;
1262;SDS011;62267;50.112;8.704;2023-09-30T14:57:03;9.03;;;4.07;;
1262;SDS011;62267;50.112;8.704;2023-09-30T14:59:32;3.73;;;3.43;;
1262;SDS011;62267;50.112;8.704;2023-09-30T15:02:01;3.93;;;3.27;;
1262;SDS011;62267;50.112;8.704;2023-09-30T15:04:28;4.93;;;3.73;;
1262;SDS011;62267;50.112;8.704;2023-09-30T15:06:55;4.33;;;3.67;;
1262;SDS011;62267;50.112;8.704;2023-09-30T15:09:23;4.20;;;3.80;;
1262;SDS011;62267;50.112;8.704;2023-09-30T15:11:50;6.63;;;5.07;;
1262;SDS011;62267;50.112;8.704;2023-09-30T15:14:18;7.90;;;7.10;;
1262;SDS011;62267;50.112;8.704;2023-09-30T15:16:46;6.10;;;3.80;;